createdAt,value
2022-08-03T00:01:35.876Z,18.04
2022-08-03T00:04:39.732Z,18.08
2022-08-03T00:07:42.326Z,18.10
2022-08-03T00:10:44.850Z,18.11
2022-08-03T00:13:47.403Z,18.05
2022-08-03T00:16:49.885Z,17.95
2022-08-03T00:19:53.730Z,17.77
2022-08-03T00:22:56.274Z,17.62
2022-08-03T00:25:58.801Z,17.54
2022-08-03T00:29:01.307Z,17.51
2022-08-03T00:32:03.857Z,17.53
2022-08-03T00:35:09.253Z,17.55
2022-08-03T00:38:13.847Z,17.57
2022-08-03T00:41:16.326Z,17.59
2022-08-03T00:44:18.811Z,17.61
2022-08-03T00:47:21.363Z,17.68
2022-08-03T00:50:27.421Z,17.80
2022-08-03T00:53:30.647Z,17.93
2022-08-03T00:56:33.306Z,17.89
2022-08-03T00:59:36.951Z,17.89
2022-08-03T01:02:40.544Z,17.94
2022-08-03T01:05:54.206Z,17.99
2022-08-03T01:09:09.562Z,18.08
2022-08-03T01:12:19.684Z,18.14
2022-08-03T01:15:30.380Z,18.19
2022-08-03T01:18:39.673Z,18.18
2022-08-03T01:21:55.953Z,18.23
2022-08-03T01:25:07.256Z,18.29
2022-08-03T01:28:23.380Z,18.30
2022-08-03T01:31:33.457Z,18.42
2022-08-03T01:34:42.276Z,18.43
2022-08-03T01:37:48.814Z,18.31
2022-08-03T01:40:54.703Z,18.23
2022-08-03T01:44:29.688Z,18.25
2022-08-03T01:47:25.385Z,18.26
2022-08-03T01:50:30.360Z,18.34
2022-08-03T01:53:34.920Z,18.45
2022-08-03T01:56:38.993Z,18.49
2022-08-03T01:59:43.133Z,18.49
2022-08-03T02:02:50.234Z,18.52
2022-08-03T02:06:11.744Z,18.49
2022-08-03T02:09:20.960Z,18.49
2022-08-03T02:12:25.938Z,18.48
2022-08-03T02:15:29.728Z,18.49
2022-08-03T02:18:35.013Z,18.35
2022-08-03T02:21:57.139Z,18.35
2022-08-03T02:25:01.092Z,18.30
2022-08-03T02:28:09.919Z,18.31
2022-08-03T02:31:16.281Z,18.21
2022-08-03T02:34:25.501Z,18.21
2022-08-03T02:37:32.336Z,18.19
2022-08-03T02:40:34.979Z,18.20
2022-08-03T02:44:05.679Z,18.19
2022-08-03T02:47:08.840Z,18.16
2022-08-03T02:50:14.590Z,18.15
2022-08-03T02:53:18.431Z,18.20
2022-08-03T02:56:23.532Z,18.17
2022-08-03T02:59:29.916Z,18.21
2022-08-03T03:02:33.765Z,18.08
2022-08-03T03:05:53.089Z,17.89
2022-08-03T03:09:00.252Z,17.89
2022-08-03T03:12:04.018Z,17.96
2022-08-03T03:15:07.428Z,18.03
2022-08-03T03:18:10.512Z,18.06
2022-08-03T03:21:17.412Z,17.90
2022-08-03T03:24:21.331Z,17.66
2022-08-03T03:27:24.246Z,17.54
2022-08-03T03:30:27.280Z,17.52
2022-08-03T03:33:29.905Z,17.61
2022-08-03T03:36:33.775Z,17.41
2022-08-03T03:39:37.295Z,17.34
2022-08-03T03:42:39.872Z,17.29
2022-08-03T03:45:43.299Z,17.18
2022-08-03T03:48:45.982Z,17.08
2022-08-03T03:51:49.807Z,17.06
2022-08-03T03:54:53.226Z,17.02
2022-08-03T03:57:57.957Z,17.12
2022-08-03T04:01:01.275Z,17.36
2022-08-03T04:04:23.764Z,17.22
2022-08-03T04:07:46.782Z,17.28
2022-08-03T04:11:08.520Z,17.86
2022-08-03T04:14:14.207Z,18.67
2022-08-03T04:17:19.330Z,18.60
2022-08-03T04:20:22.720Z,19.52
2022-08-03T04:23:28.796Z,21.26
2022-08-03T04:26:34.779Z,22.23
2022-08-03T04:29:44.824Z,23.03
2022-08-03T04:32:52.471Z,23.53
2022-08-03T04:36:02.704Z,24.17
2022-08-03T04:39:11.781Z,24.48
2022-08-03T04:42:15.892Z,25.09
2022-08-03T04:45:20.520Z,25.43
2022-08-03T04:48:23.592Z,25.99
2022-08-03T04:51:26.803Z,26.34
2022-08-03T04:54:30.732Z,25.23
2022-08-03T04:57:33.301Z,26.18
2022-08-03T05:00:35.940Z,27.18
2022-08-03T05:03:38.879Z,27.90
2022-08-03T05:06:47.891Z,28.35
2022-08-03T05:09:57.486Z,28.59
2022-08-03T05:13:04.433Z,28.86
2022-08-03T05:16:06.998Z,29.28
2022-08-03T05:19:09.489Z,29.08
2022-08-03T05:22:11.960Z,29.56
2022-08-03T05:25:19.853Z,29.90
2022-08-03T05:28:23.992Z,30.13
2022-08-03T05:31:26.533Z,30.44
2022-08-03T05:34:29.030Z,30.49
2022-08-03T05:37:31.507Z,30.14
2022-08-03T05:40:35.396Z,28.93
2022-08-03T05:43:37.876Z,28.23
2022-08-03T05:46:40.363Z,27.63
2022-08-03T05:49:42.969Z,26.86
2022-08-03T05:52:46.058Z,25.99
2022-08-03T05:55:54.252Z,25.35
2022-08-03T05:59:07.249Z,25.43
2022-08-03T06:02:19.039Z,25.99
2022-08-03T06:05:21.612Z,26.25
2022-08-03T06:08:24.530Z,26.99
2022-08-03T06:11:28.347Z,27.52
2022-08-03T06:14:30.821Z,28.06
2022-08-03T06:17:37.697Z,28.38
2022-08-03T06:20:40.407Z,28.80
2022-08-03T06:23:52.989Z,29.29
2022-08-03T06:26:58.719Z,29.62
2022-08-03T06:30:01.256Z,29.45
2022-08-03T06:33:03.823Z,29.36
2022-08-03T06:36:10.815Z,29.81
2022-08-03T06:39:14.804Z,30.12
2022-08-03T06:42:18.699Z,30.32
2022-08-03T06:45:23.441Z,30.53
2022-08-03T06:48:25.916Z,30.82
2022-08-03T06:52:04.852Z,30.99
2022-08-03T06:54:51.695Z,31.64
2022-08-03T06:57:55.573Z,31.90
2022-08-03T07:01:02.493Z,32.03
2022-08-03T07:04:05.904Z,31.85
2022-08-03T07:07:08.477Z,31.40
2022-08-03T07:10:12.496Z,31.43
2022-08-03T07:13:16.307Z,31.91
2022-08-03T07:16:18.818Z,32.64
2022-08-03T07:19:21.303Z,32.63
2022-08-03T07:22:23.786Z,32.68
2022-08-03T07:25:26.313Z,32.60
2022-08-03T07:28:30.241Z,32.60
2022-08-03T07:31:34.418Z,33.19
2022-08-03T07:34:37.094Z,33.31
2022-08-03T07:37:39.647Z,33.15
2022-08-03T07:40:46.025Z,33.62
2022-08-03T07:43:50.192Z,34.14
2022-08-03T07:46:52.716Z,34.43
2022-08-03T07:49:56.042Z,34.48
2022-08-03T07:52:59.746Z,34.58
2022-08-03T07:56:02.273Z,34.98
2022-08-03T07:59:09.740Z,34.66
2022-08-03T08:02:12.239Z,35.08
2022-08-03T08:05:14.760Z,35.07
2022-08-03T08:08:17.281Z,34.77
2022-08-03T08:11:22.233Z,34.65
2022-08-03T08:14:26.169Z,34.83
2022-08-03T08:17:28.780Z,35.11
2022-08-03T08:20:32.845Z,34.64
2022-08-03T08:23:42.227Z,35.18
2022-08-03T08:26:45.691Z,35.42
2022-08-03T08:29:55.341Z,35.45
2022-08-03T08:32:59.164Z,34.70
2022-08-03T08:36:01.707Z,34.92
2022-08-03T08:39:04.745Z,35.08
2022-08-03T08:42:07.371Z,35.20
2022-08-03T08:45:12.221Z,35.59
2022-08-03T08:48:15.576Z,35.54
2022-08-03T08:51:21.133Z,35.79
2022-08-03T08:54:24.651Z,35.71
2022-08-03T08:57:42.375Z,35.62
2022-08-03T09:00:48.416Z,35.48
2022-08-03T09:03:51.720Z,36.42
2022-08-03T09:07:18.833Z,36.47
2022-08-03T09:10:21.803Z,36.87
2022-08-03T09:13:24.331Z,36.30
2022-08-03T09:16:28.208Z,36.56
2022-08-03T09:19:31.337Z,36.60
2022-08-03T09:22:34.356Z,36.83
2022-08-03T09:25:38.868Z,36.69
2022-08-03T09:28:59.493Z,36.78
2022-08-03T09:32:05.312Z,36.96
2022-08-03T09:35:09.525Z,36.81
2022-08-03T09:38:16.362Z,37.29
2022-08-03T09:41:19.675Z,36.90
2022-08-03T09:44:35.256Z,37.12
2022-08-03T09:47:44.904Z,36.99
2022-08-03T09:50:58.440Z,37.22
2022-08-03T09:54:20.331Z,37.48
2022-08-03T09:57:24.244Z,37.73
2022-08-03T10:00:26.779Z,36.66
2022-08-03T10:03:32.456Z,35.91
2022-08-03T10:06:34.959Z,36.89
2022-08-03T10:09:38.329Z,37.22
2022-08-03T10:12:41.877Z,36.74
2022-08-03T10:16:21.153Z,36.74
2022-08-03T10:19:10.582Z,36.20
2022-08-03T10:22:15.407Z,36.36
2022-08-03T10:25:18.792Z,37.06
2022-08-03T10:28:23.108Z,36.46
2022-08-03T10:31:26.081Z,36.59
2022-08-03T10:34:35.412Z,36.24
2022-08-03T10:37:42.522Z,36.82
2022-08-03T10:41:02.214Z,36.64
2022-08-03T10:44:07.838Z,35.87
2022-08-03T10:47:11.328Z,36.50
2022-08-03T10:50:16.137Z,36.63
2022-08-03T10:53:35.682Z,36.62
2022-08-03T10:57:13.470Z,36.79
2022-08-03T11:00:18.432Z,37.05
2022-08-03T11:03:20.933Z,37.74
2022-08-03T11:06:26.469Z,37.31
2022-08-03T11:09:42.177Z,37.60
2022-08-03T11:12:46.102Z,37.20
2022-08-03T11:15:50.592Z,37.15
2022-08-03T11:19:01.362Z,37.27
2022-08-03T11:22:06.739Z,37.63
2022-08-03T11:25:09.567Z,37.03
2022-08-03T11:28:33.617Z,37.17
2022-08-03T11:31:56.889Z,37.41
2022-08-03T11:35:10.268Z,37.98
2022-08-03T11:38:14.101Z,37.89
2022-08-03T11:41:44.920Z,37.61
2022-08-03T11:44:48.245Z,37.94
2022-08-03T11:47:54.850Z,37.86
2022-08-03T11:50:57.885Z,38.31
2022-08-03T11:54:03.632Z,38.45
2022-08-03T11:57:06.274Z,38.34
2022-08-03T12:00:26.297Z,38.02
2022-08-03T12:03:34.010Z,37.68
2022-08-03T12:06:54.924Z,37.25
2022-08-03T12:10:10.581Z,37.26
2022-08-03T12:13:56.730Z,37.03
2022-08-03T12:16:35.674Z,37.28
2022-08-03T12:19:43.057Z,37.18
2022-08-03T12:22:45.564Z,37.24
2022-08-03T12:25:49.713Z,37.59
2022-08-03T12:28:52.239Z,37.68
2022-08-03T12:31:56.091Z,37.91
2022-08-03T12:35:01.599Z,37.60
2022-08-03T12:38:04.717Z,37.77
2022-08-03T12:41:13.484Z,37.60
2022-08-03T12:44:16.654Z,37.20
2022-08-03T12:47:19.421Z,37.69
2022-08-03T12:50:31.256Z,38.06
2022-08-03T12:53:35.519Z,37.49
2022-08-03T12:56:57.906Z,37.01
2022-08-03T13:00:21.248Z,37.14
2022-08-03T13:03:39.195Z,37.84
2022-08-03T13:06:44.588Z,38.07
2022-08-03T13:09:48.917Z,37.93
2022-08-03T13:12:53.231Z,38.02
2022-08-03T13:15:55.707Z,37.71
2022-08-03T13:18:58.214Z,37.76
2022-08-03T13:22:03.574Z,37.90
2022-08-03T13:25:08.491Z,38.05
2022-08-03T13:28:14.436Z,37.79
2022-08-03T13:31:17.358Z,37.53
2022-08-03T13:34:22.980Z,37.27
2022-08-03T13:37:26.631Z,37.12
2022-08-03T13:40:35.578Z,36.61
2022-08-03T13:43:45.422Z,36.13
2022-08-03T13:46:49.616Z,36.09
2022-08-03T13:49:59.744Z,35.84
2022-08-03T13:53:03.158Z,36.39
2022-08-03T13:56:05.922Z,36.55
2022-08-03T13:59:11.026Z,36.69
2022-08-03T14:02:13.531Z,36.30
2022-08-03T14:05:16.137Z,36.66
2022-08-03T14:08:18.679Z,36.31
2022-08-03T14:11:21.221Z,36.04
2022-08-03T14:14:25.090Z,36.16
2022-08-03T14:17:42.089Z,36.94
2022-08-03T14:20:50.219Z,37.30
2022-08-03T14:23:56.813Z,37.37
2022-08-03T14:27:08.665Z,37.38
2022-08-03T14:30:13.792Z,37.01
2022-08-03T14:33:16.446Z,37.08
2022-08-03T14:36:18.983Z,37.02
2022-08-03T14:39:23.052Z,37.28
2022-08-03T14:42:25.800Z,37.29
2022-08-03T14:45:29.667Z,36.37
2022-08-03T14:50:33.448Z,37.08
2022-08-03T14:51:54.894Z,37.40
2022-08-03T14:54:57.472Z,37.63
2022-08-03T14:58:02.865Z,37.61
2022-08-03T15:02:06.522Z,37.91
2022-08-03T15:04:30.156Z,37.58
2022-08-03T15:07:32.749Z,38.01
2022-08-03T15:10:44.133Z,38.04
2022-08-03T15:13:47.145Z,37.37
2022-08-03T15:16:50.990Z,37.12
2022-08-03T15:20:00.509Z,36.88
2022-08-03T15:23:17.831Z,36.91
2022-08-03T15:26:30.636Z,36.94
2022-08-03T15:30:06.901Z,36.92
2022-08-03T15:33:00.435Z,36.59
2022-08-03T15:36:03.297Z,36.56
2022-08-03T15:39:06.108Z,36.42
2022-08-03T15:42:08.740Z,36.02
2022-08-03T15:45:12.838Z,35.73
2022-08-03T15:48:17.053Z,35.64
2022-08-03T15:51:20.751Z,35.51
2022-08-03T15:54:23.304Z,35.78
2022-08-03T15:57:25.829Z,35.77
2022-08-03T16:00:33.761Z,35.38
2022-08-03T16:03:37.787Z,34.63
2022-08-03T16:06:40.404Z,33.83
2022-08-03T16:09:43.982Z,33.47
2022-08-03T16:12:47.425Z,33.15
2022-08-03T16:15:50.320Z,33.11
2022-08-03T16:18:54.284Z,33.46
2022-08-03T16:21:56.783Z,34.09
2022-08-03T16:25:00.514Z,34.59
2022-08-03T16:28:07.911Z,34.74
2022-08-03T16:31:15.208Z,34.74
2022-08-03T16:34:19.141Z,34.64
2022-08-03T16:37:38.103Z,34.55
2022-08-03T16:40:41.427Z,34.50
2022-08-03T16:43:43.934Z,34.79
2022-08-03T16:46:46.523Z,34.76
2022-08-03T16:49:54.628Z,33.84
2022-08-03T16:52:58.907Z,33.10
2022-08-03T16:56:03.702Z,32.94
2022-08-03T16:59:08.143Z,32.67
2022-08-03T17:02:22.615Z,32.34
2022-08-03T17:05:32.685Z,32.10
2022-08-03T17:08:55.881Z,31.93
2022-08-03T17:11:58.424Z,31.92
2022-08-03T17:15:02.899Z,32.15
2022-08-03T17:18:09.457Z,32.16
2022-08-03T17:21:16.500Z,32.24
2022-08-03T17:24:26.403Z,32.20
2022-08-03T17:28:48.990Z,32.07
2022-08-03T17:31:23.097Z,32.07
2022-08-03T17:34:33.900Z,32.11
2022-08-03T17:37:57.593Z,31.91
2022-08-03T17:41:01.246Z,31.54
2022-08-03T17:44:28.888Z,31.24
2022-08-03T17:51:04.080Z,30.43
2022-08-03T17:54:18.111Z,30.42
2022-08-03T17:57:30.073Z,30.61
2022-08-03T18:01:57.523Z,30.69
2022-08-03T18:04:42.693Z,30.75
2022-08-03T18:07:47.494Z,30.71
2022-08-03T18:10:56.843Z,30.47
2022-08-03T18:14:16.277Z,30.18
2022-08-03T18:17:55.001Z,29.83
2022-08-03T18:20:50.419Z,29.43
2022-08-03T18:23:55.448Z,29.23
2022-08-03T18:27:03.816Z,29.08
2022-08-03T18:30:09.852Z,28.80
2022-08-03T18:34:16.630Z,28.49
2022-08-03T18:36:39.765Z,28.26
2022-08-03T18:39:49.950Z,28.09
2022-08-03T18:42:56.584Z,27.82
2022-08-03T18:46:04.181Z,27.56
2022-08-03T18:49:12.771Z,27.41
2022-08-03T18:52:17.994Z,27.21
2022-08-03T18:55:33.239Z,26.94
2022-08-03T18:58:52.275Z,26.73
2022-08-03T19:02:04.123Z,26.57
2022-08-03T19:05:08.992Z,26.56
2022-08-03T19:08:17.779Z,26.45
2022-08-03T19:11:27.793Z,26.31
2022-08-03T19:14:48.303Z,26.07
2022-08-03T19:17:52.878Z,25.82
2022-08-03T19:20:57.011Z,25.65
2022-08-03T19:24:06.624Z,25.45
2022-08-03T19:27:13.339Z,25.23
2022-08-03T19:30:38.943Z,25.06
2022-08-03T19:33:56.096Z,24.97
2022-08-03T19:37:00.346Z,24.83
2022-08-03T19:40:02.902Z,24.70
2022-08-03T19:43:12.593Z,24.60
2022-08-03T19:46:22.400Z,24.50
2022-08-03T19:50:05.632Z,24.44
2022-08-03T19:52:51.783Z,24.32
2022-08-03T19:55:58.245Z,24.24
2022-08-03T19:59:02.011Z,24.13
2022-08-03T20:02:08.846Z,24.01
2022-08-03T20:05:20.049Z,23.89
2022-08-03T20:08:23.078Z,23.83
2022-08-03T20:14:50.057Z,23.43
2022-08-03T20:17:58.854Z,23.35
2022-08-03T20:21:14.979Z,23.28
2022-08-03T20:24:23.728Z,23.25
2022-08-03T20:27:30.293Z,23.20
2022-08-03T20:30:33.080Z,23.08
2022-08-03T20:33:48.405Z,22.97
2022-08-03T20:36:51.705Z,22.96
2022-08-03T20:39:54.870Z,22.91
2022-08-03T20:42:57.454Z,22.99
2022-08-03T20:46:32.890Z,22.91
2022-08-03T20:49:24.442Z,22.91
2022-08-03T20:52:26.948Z,22.68
2022-08-03T20:55:47.676Z,22.65
2022-08-03T20:58:52.432Z,22.63
2022-08-03T21:01:54.950Z,22.60
2022-08-03T21:05:02.986Z,22.59
2022-08-03T21:08:08.602Z,22.60
2022-08-03T21:11:18.244Z,22.46
2022-08-03T21:13:04.543Z,30.73
2022-08-03T21:13:09.605Z,23.58
2022-08-03T21:14:25.785Z,22.40
2022-08-03T21:17:40.665Z,22.33
2022-08-03T21:20:47.350Z,22.36
2022-08-03T21:23:52.594Z,22.25
2022-08-03T21:26:55.954Z,22.13
2022-08-03T21:30:01.867Z,22.05
2022-08-03T21:33:06.572Z,22.14
2022-08-03T21:36:11.129Z,22.14
2022-08-03T21:39:13.802Z,22.10
2022-08-03T21:42:16.504Z,21.98
2022-08-03T21:45:19.270Z,22.00
2022-08-03T21:48:24.912Z,21.95
2022-08-03T21:51:32.512Z,21.84
2022-08-03T21:54:37.260Z,21.67
2022-08-03T21:57:40.910Z,21.58
2022-08-03T22:00:44.376Z,21.41
2022-08-03T22:06:58.759Z,21.39
2022-08-03T22:10:03.450Z,21.44
2022-08-03T22:13:06.023Z,21.23
2022-08-03T22:16:09.962Z,21.25
2022-08-03T22:19:12.587Z,21.27
2022-08-03T22:22:19.552Z,21.18
2022-08-03T22:25:24.067Z,21.16
2022-08-03T22:28:31.548Z,20.99
2022-08-03T22:31:57.517Z,20.93
2022-08-03T22:34:57.504Z,20.87
2022-08-03T22:38:06.293Z,20.84
2022-08-03T22:41:09.044Z,20.63
2022-08-03T22:44:11.566Z,20.68
2022-08-03T22:47:14.747Z,20.64
2022-08-03T22:50:32.378Z,20.55
2022-08-03T22:53:39.408Z,20.58
2022-08-03T22:56:42.498Z,20.54
2022-08-03T22:59:47.210Z,20.43
2022-08-03T23:02:50.181Z,20.48
2022-08-03T23:06:02.232Z,20.49
2022-08-03T23:09:09.568Z,20.46
2022-08-03T23:12:15.234Z,20.34
2022-08-03T23:15:18.701Z,20.18
2022-08-03T23:18:22.527Z,20.13
2022-08-03T23:21:51.284Z,20.14
2022-08-03T23:24:53.239Z,20.08
2022-08-03T23:28:04.945Z,20.00
2022-08-03T23:31:08.965Z,20.05
2022-08-03T23:34:32.626Z,20.11
2022-08-03T23:38:04.118Z,20.15
2022-08-03T23:41:01.961Z,20.24
2022-08-03T23:44:05.457Z,20.21
2022-08-03T23:47:09.123Z,20.18
2022-08-03T23:50:12.252Z,20.04
2022-08-03T23:53:23.021Z,19.96
2022-08-03T23:56:38.267Z,20.12
2022-08-03T23:59:52.530Z,20.04
